createdAt,value
2022-11-20T00:00:08.376Z,92.0419921875
2022-11-20T00:01:11.034Z,91.9794921875
2022-11-20T00:02:08.226Z,92.1845703125
2022-11-20T00:03:08.449Z,92.3955078125
2022-11-20T00:04:08.093Z,92.8671875
2022-11-20T00:05:08.147Z,93.8212890625
2022-11-20T00:06:08.175Z,94.0185546875
2022-11-20T00:07:08.153Z,93.759765625
2022-11-20T00:08:08.450Z,93.626953125
2022-11-20T00:09:08.120Z,93.1845703125
2022-11-20T00:10:08.150Z,92.9384765625
2022-11-20T00:11:12.798Z,92.8125
2022-11-20T00:12:11.125Z,93.0908203125
2022-11-20T00:13:08.391Z,92.27734375
2022-11-20T00:14:08.087Z,92.6923828125
2022-11-20T00:15:08.388Z,93.8974609375
2022-11-20T00:16:08.188Z,94.578125
2022-11-20T00:17:08.011Z,93.9130859375
2022-11-20T00:18:08.379Z,93.9033203125
2022-11-20T00:19:08.133Z,94.205078125
2022-11-20T00:20:08.202Z,94.5869140625
2022-11-20T00:21:08.108Z,93.7822265625
2022-11-20T00:22:08.114Z,93.7900390625
2022-11-20T00:23:14.066Z,93.986328125
2022-11-20T00:24:08.119Z,94.1982421875
2022-11-20T00:25:08.162Z,94.189453125
2022-11-20T00:26:08.100Z,94.2470703125
2022-11-20T00:27:08.174Z,94.3408203125
2022-11-20T00:28:08.488Z,95.0576171875
2022-11-20T00:29:08.015Z,95.3916015625
2022-11-20T00:30:12.312Z,95.3857421875
2022-11-20T00:31:08.220Z,95.2294921875
2022-11-20T00:32:08.105Z,94.8017578125
2022-11-20T00:33:08.380Z,94.9892578125
2022-11-20T00:34:11.024Z,95.07421875
2022-11-20T00:35:08.152Z,93.9521484375
2022-11-20T00:36:08.112Z,94.23046875
2022-11-20T00:37:08.203Z,94.44140625
2022-11-20T00:38:08.376Z,94.23046875
2022-11-20T00:39:08.213Z,94.8935546875
2022-11-20T00:40:08.131Z,94.8779296875
2022-11-20T00:41:08.078Z,93.9404296875
2022-11-20T00:42:08.041Z,93.572265625
2022-11-20T00:43:08.373Z,93.349609375
2022-11-20T00:44:08.150Z,93.6171875
2022-11-20T00:45:11.525Z,93.8095703125
2022-11-20T00:46:08.058Z,93.826171875
2022-11-20T00:47:08.019Z,93.765625
2022-11-20T00:48:08.384Z,94.34375
2022-11-20T00:49:08.116Z,94.4697265625
2022-11-20T00:50:08.041Z,94.5341796875
2022-11-20T00:51:08.184Z,93.8017578125
2022-11-20T00:52:08.232Z,93.4697265625
2022-11-20T00:53:08.402Z,93.634765625
2022-11-20T00:54:08.239Z,93.6630859375
2022-11-20T00:55:08.242Z,94.669921875
2022-11-20T00:56:11.151Z,95.2783203125
2022-11-20T00:57:08.240Z,94.1240234375
2022-11-20T00:58:14.036Z,94.01953125
2022-11-20T00:59:08.089Z,94.30078125
2022-11-20T01:00:09.464Z,94.8388671875
2022-11-20T01:01:08.522Z,95.9140625
2022-11-20T01:02:08.141Z,96.2900390625
2022-11-20T01:03:08.446Z,95.673828125
2022-11-20T01:04:08.185Z,95.5283203125
2022-11-20T01:05:08.127Z,96.1787109375
2022-11-20T01:06:08.020Z,96.0546875
2022-11-20T01:07:08.058Z,95.853515625
2022-11-20T01:08:08.447Z,95.51171875
2022-11-20T01:09:08.205Z,95.263671875
2022-11-20T01:10:08.004Z,94.802734375
2022-11-20T01:11:08.160Z,93.4365234375
2022-11-20T01:12:11.148Z,93.3828125
2022-11-20T01:13:08.373Z,94.2177734375
2022-11-20T01:14:08.254Z,94.009765625
2022-11-20T01:15:08.499Z,94.2607421875
2022-11-20T01:16:08.110Z,95.6689453125
2022-11-20T01:17:08.153Z,95.7099609375
2022-11-20T01:18:08.375Z,95.580078125
2022-11-20T01:19:08.092Z,95.400390625
2022-11-20T01:20:08.023Z,94.7607421875
2022-11-20T01:21:08.133Z,95.2080078125
2022-11-20T01:22:08.234Z,93.9560546875
2022-11-20T01:23:08.386Z,94.6357421875
2022-11-20T01:24:08.124Z,95.2255859375
2022-11-20T01:25:08.125Z,97.1103515625
2022-11-20T01:26:08.140Z,96.1357421875
2022-11-20T01:27:08.187Z,96
2022-11-20T01:28:11.383Z,96.685546875
2022-11-20T01:29:08.244Z,97.513671875
2022-11-20T01:30:08.380Z,97.8173828125
2022-11-20T01:31:08.113Z,0
2022-11-20T01:32:08.172Z,0
2022-11-20T01:33:08.379Z,0
2022-11-20T01:34:08.088Z,0
2022-11-20T01:35:08.119Z,0
2022-11-20T01:36:08.115Z,0
2022-11-20T01:37:08.220Z,0
2022-11-20T01:38:08.495Z,0
2022-11-20T01:39:08.126Z,0
2022-11-20T01:40:08.135Z,0
2022-11-20T01:41:08.133Z,0
2022-11-20T01:42:10.081Z,0
2022-11-20T01:43:08.373Z,0
2022-11-20T01:44:08.017Z,0
2022-11-20T01:45:08.452Z,0
2022-11-20T01:46:08.028Z,0
2022-11-20T01:47:08.098Z,0
2022-11-20T01:48:08.449Z,0
2022-11-20T01:49:11.042Z,0
2022-11-20T01:50:08.106Z,0
2022-11-20T01:51:08.166Z,0
2022-11-20T01:52:08.120Z,0
2022-11-20T01:53:08.447Z,0
2022-11-20T01:54:08.248Z,0
2022-11-20T01:55:08.020Z,0
2022-11-20T01:56:08.166Z,0
2022-11-20T01:57:08.057Z,0
2022-11-20T01:58:08.374Z,0
2022-11-20T01:59:08.016Z,0
2022-11-20T02:00:11.596Z,0
2022-11-20T02:01:08.243Z,0
2022-11-20T02:02:08.099Z,0
2022-11-20T02:03:08.417Z,0
2022-11-20T02:04:08.158Z,0
2022-11-20T02:05:08.201Z,0
2022-11-20T02:06:08.136Z,0
2022-11-20T02:07:08.229Z,0
2022-11-20T02:08:08.453Z,0
2022-11-20T02:09:08.235Z,0
2022-11-20T02:10:08.173Z,0
2022-11-20T02:11:08.157Z,0
2022-11-20T02:12:08.000Z,0
2022-11-20T02:13:08.499Z,0
2022-11-20T02:14:08.237Z,0
2022-11-20T02:15:08.382Z,0
2022-11-20T02:16:08.143Z,0
2022-11-20T02:17:08.203Z,0
2022-11-20T02:18:08.423Z,0
2022-11-20T02:19:07.989Z,0
2022-11-20T02:20:08.024Z,0
2022-11-20T02:21:11.126Z,0
2022-11-20T02:22:08.201Z,0
2022-11-20T02:23:08.479Z,0
2022-11-20T02:24:08.113Z,0
2022-11-20T02:25:08.168Z,0
2022-11-20T02:26:08.206Z,0
2022-11-20T02:27:08.027Z,0
2022-11-20T02:28:08.506Z,0
2022-11-20T02:29:08.217Z,0
2022-11-20T02:30:08.389Z,0
2022-11-20T02:31:08.124Z,0
2022-11-20T02:32:11.139Z,0
2022-11-20T02:33:08.461Z,0
2022-11-20T02:34:08.161Z,0
2022-11-20T02:35:08.210Z,0
2022-11-20T02:36:08.134Z,0
2022-11-20T02:37:08.033Z,0
2022-11-20T02:38:08.375Z,0
2022-11-20T02:39:08.141Z,0
2022-11-20T02:40:08.192Z,0
2022-11-20T02:41:08.020Z,0
2022-11-20T02:42:08.061Z,0
2022-11-20T02:43:14.040Z,0
2022-11-20T02:44:08.177Z,0
2022-11-20T02:45:08.457Z,0
2022-11-20T02:46:08.204Z,0
2022-11-20T02:47:08.082Z,0
2022-11-20T02:48:08.526Z,0
2022-11-20T02:49:08.051Z,0
2022-11-20T02:50:08.145Z,0
2022-11-20T02:51:08.155Z,0
2022-11-20T02:52:08.028Z,0
2022-11-20T02:53:08.454Z,0
2022-11-20T02:54:11.115Z,0
2022-11-20T02:55:08.199Z,0
2022-11-20T02:56:08.134Z,0
2022-11-20T02:57:08.189Z,0
2022-11-20T02:58:08.441Z,0
2022-11-20T02:59:08.136Z,0
2022-11-20T03:00:08.551Z,0
2022-11-20T03:01:08.161Z,0
2022-11-20T03:02:08.126Z,0
2022-11-20T03:03:08.368Z,0
2022-11-20T03:04:08.146Z,0
2022-11-20T03:05:11.051Z,0
2022-11-20T03:06:08.239Z,0
2022-11-20T03:07:08.252Z,0
2022-11-20T03:08:08.451Z,0
2022-11-20T03:09:08.195Z,0
2022-11-20T03:10:08.027Z,0
2022-11-20T03:11:08.152Z,0
2022-11-20T03:12:08.126Z,0
2022-11-20T03:13:08.390Z,0
2022-11-20T03:14:08.113Z,0
2022-11-20T03:15:08.499Z,0
2022-11-20T03:16:11.122Z,0
2022-11-20T03:17:08.241Z,0
2022-11-20T03:18:08.378Z,0
2022-11-20T03:19:08.209Z,0
2022-11-20T03:20:08.080Z,0
2022-11-20T03:21:08.128Z,0
2022-11-20T03:22:08.117Z,0
2022-11-20T03:23:08.456Z,0
2022-11-20T03:24:08.249Z,0
2022-11-20T03:25:08.211Z,0
2022-11-20T03:26:08.194Z,0
2022-11-20T03:27:11.124Z,0
2022-11-20T03:28:08.376Z,0
2022-11-20T03:29:08.151Z,0
2022-11-20T03:30:08.451Z,0
2022-11-20T03:31:08.172Z,0
2022-11-20T03:32:08.178Z,0
2022-11-20T03:33:14.086Z,0
2022-11-20T03:34:08.163Z,0
2022-11-20T03:35:08.074Z,0
2022-11-20T03:36:08.171Z,0
2022-11-20T03:37:08.122Z,0
2022-11-20T03:38:08.164Z,0
2022-11-20T03:39:08.415Z,0
2022-11-20T03:40:08.163Z,0
2022-11-20T03:41:08.234Z,0
2022-11-20T03:42:08.032Z,0
2022-11-20T03:43:08.027Z,0
2022-11-20T03:44:11.412Z,0
2022-11-20T03:45:08.427Z,0
2022-11-20T03:46:08.144Z,0
2022-11-20T03:47:08.108Z,0
2022-11-20T03:48:08.128Z,0
2022-11-20T03:49:08.162Z,0
2022-11-20T03:50:08.170Z,0
2022-11-20T03:51:08.129Z,0
2022-11-20T03:52:08.210Z,0
2022-11-20T03:53:08.207Z,0
2022-11-20T03:54:08.447Z,0
2022-11-20T03:55:11.114Z,0
2022-11-20T03:56:08.207Z,0
2022-11-20T03:57:08.011Z,0
2022-11-20T03:58:08.160Z,0
2022-11-20T03:59:08.415Z,0
2022-11-20T04:00:08.457Z,0
2022-11-20T04:01:11.148Z,0
2022-11-20T04:02:08.179Z,0
2022-11-20T04:03:08.023Z,0
2022-11-20T04:04:08.373Z,0
2022-11-20T04:05:08.095Z,0
2022-11-20T04:06:08.162Z,0
2022-11-20T04:07:08.220Z,0
2022-11-20T04:08:08.034Z,0
2022-11-20T04:09:08.374Z,0
2022-11-20T04:10:08.231Z,0
2022-11-20T04:11:08.176Z,0
2022-11-20T04:12:11.072Z,0
2022-11-20T04:13:08.218Z,0
2022-11-20T04:14:08.490Z,0
2022-11-20T04:15:08.376Z,0
2022-11-20T04:16:08.127Z,0
2022-11-20T04:17:08.104Z,0
2022-11-20T04:18:08.124Z,0
2022-11-20T04:19:08.446Z,0
2022-11-20T04:20:08.100Z,0
2022-11-20T04:21:08.115Z,0
2022-11-20T04:22:08.210Z,0
2022-11-20T04:23:11.119Z,0
2022-11-20T04:24:08.378Z,0
2022-11-20T04:25:08.193Z,0
2022-11-20T04:26:08.069Z,0
2022-11-20T04:27:08.006Z,0
2022-11-20T04:28:08.154Z,97.5673828125
2022-11-20T04:29:08.408Z,97.1220703125
2022-11-20T04:30:08.007Z,97.208984375
2022-11-20T04:31:08.529Z,97.2958984375
2022-11-20T04:32:08.205Z,97.4453125
2022-11-20T04:33:08.139Z,96.375
2022-11-20T04:34:11.159Z,96.0224609375
2022-11-20T04:35:08.240Z,96.0205078125
2022-11-20T04:36:08.231Z,97.2412109375
2022-11-20T04:37:08.235Z,97.2783203125
2022-11-20T04:38:08.223Z,96.7421875
2022-11-20T04:39:08.449Z,96.53125
2022-11-20T04:40:08.166Z,96.2841796875
2022-11-20T04:41:08.123Z,96.28125
2022-11-20T04:42:08.092Z,96.4794921875
2022-11-20T04:43:08.154Z,96.2236328125
2022-11-20T04:44:08.381Z,96.3271484375
2022-11-20T04:45:11.183Z,96.2080078125
2022-11-20T04:46:08.501Z,96.3095703125
2022-11-20T04:47:08.228Z,96.0458984375
2022-11-20T04:48:08.024Z,95.876953125
2022-11-20T04:49:08.496Z,95.896484375
2022-11-20T04:50:08.223Z,94.74609375
2022-11-20T04:51:08.132Z,94.611328125
2022-11-20T04:52:08.110Z,95.6455078125
2022-11-20T04:53:08.168Z,96.0380859375
2022-11-20T04:54:08.450Z,95.54296875
2022-11-20T04:55:08.192Z,94.912109375
2022-11-20T04:56:08.119Z,95.10546875
2022-11-20T04:57:14.081Z,94.9794921875
2022-11-20T04:58:08.126Z,95.2001953125
2022-11-20T04:59:08.458Z,94.5537109375
2022-11-20T05:00:08.167Z,94.6357421875
2022-11-20T05:01:14.235Z,94.7490234375
2022-11-20T05:02:08.147Z,95.029296875
2022-11-20T05:03:08.121Z,94.6533203125
2022-11-20T05:04:08.368Z,95.1845703125
2022-11-20T05:05:08.223Z,95.404296875
2022-11-20T05:06:08.142Z,95.3544921875
2022-11-20T05:07:08.091Z,95.5302734375
2022-11-20T05:08:08.101Z,95.01171875
2022-11-20T05:09:08.522Z,95.009765625
2022-11-20T05:10:08.212Z,95.6259765625
2022-11-20T05:11:08.200Z,95.2177734375
2022-11-20T05:12:11.114Z,95.3896484375
2022-11-20T05:13:08.367Z,94.55859375
2022-11-20T05:14:08.446Z,94.0654296875
2022-11-20T05:15:08.063Z,94.4140625
2022-11-20T05:16:08.500Z,95.318359375
2022-11-20T05:17:08.149Z,95.2666015625
2022-11-20T05:18:08.103Z,95.412109375
2022-11-20T05:19:08.565Z,94.578125
2022-11-20T05:20:08.237Z,94.431640625
2022-11-20T05:21:08.196Z,94.3876953125
2022-11-20T05:22:08.162Z,94.818359375
2022-11-20T05:23:08.015Z,94.9150390625
2022-11-20T05:24:08.452Z,95.3818359375
2022-11-20T05:25:08.101Z,96.283203125
2022-11-20T05:26:08.138Z,96.3759765625
2022-11-20T05:27:08.094Z,96.2763671875
2022-11-20T05:28:10.988Z,96.177734375
2022-11-20T05:29:08.380Z,96.041015625
2022-11-20T05:30:08.068Z,95.9306640625
2022-11-20T05:31:08.389Z,96.1669921875
2022-11-20T05:32:09.076Z,96.0302734375
2022-11-20T05:33:08.233Z,95.7099609375
2022-11-20T05:34:08.375Z,94.978515625
2022-11-20T05:35:08.016Z,95.2109375
2022-11-20T05:36:08.122Z,95.302734375
2022-11-20T05:37:08.146Z,95.7001953125
2022-11-20T05:38:08.231Z,95.8271484375
2022-11-20T05:39:11.141Z,94.841796875
2022-11-20T05:40:08.389Z,94.6904296875
2022-11-20T05:41:08.256Z,94.931640625
2022-11-20T05:42:08.182Z,94.56640625
2022-11-20T05:43:08.236Z,94.1357421875
2022-11-20T05:44:08.039Z,94.3232421875
2022-11-20T05:45:08.418Z,94.578125
2022-11-20T05:46:08.457Z,94.3798828125
2022-11-20T05:47:08.120Z,94.052734375
2022-11-20T05:48:08.109Z,94.0419921875
2022-11-20T05:49:08.015Z,94.1376953125
2022-11-20T05:50:11.380Z,93.8994140625
2022-11-20T05:51:08.088Z,93.548828125
2022-11-20T05:52:08.037Z,93.5380859375
2022-11-20T05:53:08.227Z,94.1484375
2022-11-20T05:54:08.151Z,94.4345703125
2022-11-20T05:55:08.451Z,94.3349609375
2022-11-20T05:56:08.110Z,94.373046875
2022-11-20T05:57:08.132Z,94.4609375
2022-11-20T05:58:08.131Z,94.4326171875
2022-11-20T05:59:08.168Z,95.0908203125
2022-11-20T06:00:08.452Z,94.8271484375
2022-11-20T06:01:11.153Z,96.142578125
2022-11-20T06:02:08.380Z,0
2022-11-20T06:03:08.216Z,0
2022-11-20T06:04:08.112Z,96.92578125
2022-11-20T06:05:08.454Z,96.3310546875
2022-11-20T06:06:08.230Z,96.8076171875
2022-11-20T06:07:08.113Z,96.5263671875
2022-11-20T06:08:08.119Z,96.701171875
2022-11-20T06:09:08.235Z,96.3173828125
2022-11-20T06:10:08.373Z,94.3076171875
2022-11-20T06:11:08.249Z,94.9228515625
2022-11-20T06:12:11.136Z,96.12109375
2022-11-20T06:13:08.162Z,96.1591796875
2022-11-20T06:14:08.164Z,95.482421875
2022-11-20T06:15:08.380Z,95.9912109375
2022-11-20T06:16:08.390Z,95.5673828125
2022-11-20T06:17:08.190Z,95.07421875
2022-11-20T06:18:08.122Z,95.6591796875
2022-11-20T06:19:08.154Z,95.75390625
2022-11-20T06:20:08.166Z,95.193359375
2022-11-20T06:21:08.453Z,95.2705078125
2022-11-20T06:22:08.217Z,95.6396484375
2022-11-20T06:23:11.120Z,94.7841796875
2022-11-20T06:24:08.106Z,95.095703125
2022-11-20T06:25:08.097Z,94.896484375
2022-11-20T06:26:08.382Z,96.142578125
2022-11-20T06:27:08.147Z,95.37109375
2022-11-20T06:28:08.103Z,95.4755859375
2022-11-20T06:29:08.141Z,95.8466796875
2022-11-20T06:30:07.994Z,95.4462890625
2022-11-20T06:31:08.164Z,94.953125
2022-11-20T06:32:08.386Z,94.123046875
2022-11-20T06:33:08.235Z,95.2705078125
2022-11-20T06:34:11.136Z,95.2294921875
2022-11-20T06:35:08.095Z,95.17578125
2022-11-20T06:36:10.860Z,95.0458984375
2022-11-20T06:37:08.372Z,94.810546875
2022-11-20T06:38:08.116Z,94.1494140625
2022-11-20T06:39:08.008Z,94.5537109375
2022-11-20T06:40:11.014Z,93.8271484375
2022-11-20T06:41:08.208Z,94.0537109375
2022-11-20T06:42:08.368Z,94.5576171875
2022-11-20T06:43:08.118Z,95.49609375
2022-11-20T06:44:08.136Z,95.55078125
2022-11-20T06:45:08.180Z,95.990234375
2022-11-20T06:46:08.040Z,95.5986328125
2022-11-20T06:47:08.456Z,96.10546875
2022-11-20T06:48:08.236Z,96.25390625
2022-11-20T06:49:08.222Z,95.8203125
2022-11-20T06:50:08.092Z,96.2080078125
2022-11-20T06:51:11.105Z,95.5029296875
2022-11-20T06:52:08.374Z,95.5703125
2022-11-20T06:53:08.109Z,95.55859375
2022-11-20T06:54:08.209Z,95.041015625
2022-11-20T06:55:08.149Z,94.8466796875
2022-11-20T06:56:08.023Z,95.3505859375
2022-11-20T06:57:08.383Z,95.9248046875
2022-11-20T06:58:08.125Z,96.166015625
2022-11-20T06:59:08.248Z,96.21875
2022-11-20T07:00:08.081Z,95.703125
2022-11-20T07:01:08.262Z,95.865234375
2022-11-20T07:02:14.058Z,96.1396484375
2022-11-20T07:03:08.137Z,95.5732421875
2022-11-20T07:04:08.007Z,95.439453125
2022-11-20T07:05:08.013Z,95.92578125
2022-11-20T07:06:08.167Z,95.625
2022-11-20T07:07:08.544Z,96.978515625
2022-11-20T07:08:11.109Z,0
2022-11-20T07:09:12.560Z,0
2022-11-20T07:10:08.118Z,0
2022-11-20T07:11:08.239Z,0
2022-11-20T07:12:08.380Z,0
2022-11-20T07:13:08.161Z,0
2022-11-20T07:14:08.128Z,0
2022-11-20T07:15:08.110Z,0
2022-11-20T07:16:08.134Z,0
2022-11-20T07:17:08.380Z,0
2022-11-20T07:18:08.198Z,0
2022-11-20T07:19:11.057Z,0
2022-11-20T07:20:08.219Z,0
2022-11-20T07:21:08.235Z,0
2022-11-20T07:22:08.386Z,0
2022-11-20T07:23:08.229Z,0
2022-11-20T07:24:08.187Z,0
2022-11-20T07:25:08.183Z,0
2022-11-20T07:26:08.112Z,0
2022-11-20T07:27:08.110Z,0
2022-11-20T07:28:08.450Z,0
2022-11-20T07:29:08.117Z,0
2022-11-20T07:30:11.200Z,0
2022-11-20T07:31:08.223Z,0
2022-11-20T07:32:08.499Z,0
2022-11-20T07:33:08.390Z,0
2022-11-20T07:34:08.232Z,0
2022-11-20T07:35:08.154Z,0
2022-11-20T07:36:08.029Z,0
2022-11-20T07:37:10.480Z,0
2022-11-20T07:38:08.454Z,0
2022-11-20T07:39:08.098Z,0
2022-11-20T07:40:08.214Z,0
2022-11-20T07:41:11.103Z,0
2022-11-20T07:42:08.032Z,0
2022-11-20T07:43:08.445Z,0
2022-11-20T07:44:08.097Z,0
2022-11-20T07:45:08.009Z,0
2022-11-20T07:46:08.114Z,0
2022-11-20T07:47:08.384Z,0
2022-11-20T07:48:08.452Z,0
2022-11-20T07:49:08.191Z,0
2022-11-20T07:50:08.178Z,0
2022-11-20T07:51:08.206Z,0
2022-11-20T07:52:11.137Z,0
2022-11-20T07:53:08.397Z,0
2022-11-20T07:54:08.214Z,0
2022-11-20T07:55:08.199Z,0
2022-11-20T07:56:08.132Z,0
2022-11-20T07:57:08.103Z,0
2022-11-20T07:58:08.426Z,0
2022-11-20T07:59:08.143Z,0
2022-11-20T08:00:08.114Z,0
2022-11-20T08:01:08.266Z,0
2022-11-20T08:02:08.455Z,0
2022-11-20T08:03:14.068Z,0
2022-11-20T08:04:08.233Z,0
2022-11-20T08:05:08.109Z,0
2022-11-20T08:06:08.144Z,0
2022-11-20T08:07:08.241Z,0
2022-11-20T08:08:08.436Z,0
2022-11-20T08:09:08.104Z,0
2022-11-20T08:10:08.030Z,0
2022-11-20T08:11:08.103Z,0
2022-11-20T08:12:08.160Z,0
2022-11-20T08:13:08.388Z,0
2022-11-20T08:14:11.049Z,0
2022-11-20T08:15:12.884Z,0
2022-11-20T08:16:08.172Z,0
2022-11-20T08:17:08.378Z,0
2022-11-20T08:18:30.150Z,0
2022-11-20T08:19:08.095Z,0
2022-11-20T08:20:08.032Z,0
2022-11-20T08:21:08.016Z,0
2022-11-20T08:22:08.113Z,0
2022-11-20T08:23:08.389Z,0
2022-11-20T08:24:08.196Z,0
2022-11-20T08:25:08.013Z,0
2022-11-20T08:26:08.127Z,0
2022-11-20T08:27:08.244Z,0
2022-11-20T08:28:19.895Z,0
2022-11-20T08:29:08.162Z,0
2022-11-20T08:30:11.139Z,0
2022-11-20T08:31:08.209Z,0
2022-11-20T08:32:08.149Z,0
2022-11-20T08:33:08.378Z,0
2022-11-20T08:34:09.814Z,0
2022-11-20T08:35:08.168Z,0
2022-11-20T08:36:08.010Z,0
2022-11-20T08:37:08.135Z,0
2022-11-20T08:38:08.207Z,0
2022-11-20T08:39:08.425Z,0
2022-11-20T08:40:08.186Z,0
2022-11-20T08:41:08.031Z,0
2022-11-20T08:42:08.034Z,0
2022-11-20T08:43:08.014Z,0
2022-11-20T08:44:08.229Z,0
2022-11-20T08:45:08.103Z,0
2022-11-20T08:46:11.139Z,0
2022-11-20T08:47:08.213Z,0
2022-11-20T08:48:08.377Z,0
2022-11-20T08:49:08.385Z,0
2022-11-20T08:50:08.121Z,0
2022-11-20T08:51:08.030Z,0
2022-11-20T08:52:08.178Z,0
2022-11-20T08:53:08.025Z,0
2022-11-20T08:54:08.147Z,0
2022-11-20T08:55:08.152Z,0
2022-11-20T08:56:08.210Z,0
2022-11-20T08:57:11.124Z,0
2022-11-20T08:58:08.226Z,0
2022-11-20T08:59:36.888Z,0
2022-11-20T09:00:08.550Z,0
2022-11-20T09:01:08.290Z,0
2022-11-20T09:02:08.236Z,0
2022-11-20T09:03:09.496Z,0
2022-11-20T09:04:08.456Z,0
2022-11-20T09:05:08.231Z,0
2022-11-20T09:06:08.195Z,0
2022-11-20T09:07:08.144Z,0
2022-11-20T09:08:11.172Z,0
2022-11-20T09:09:08.386Z,0
2022-11-20T09:10:28.008Z,0
2022-11-20T09:11:08.011Z,0
2022-11-20T09:12:08.137Z,0
2022-11-20T09:13:08.249Z,0
2022-11-20T09:14:08.372Z,0
2022-11-20T09:15:08.168Z,0
2022-11-20T09:16:08.140Z,0
2022-11-20T09:17:08.204Z,0
2022-11-20T09:18:08.384Z,93.1611328125
2022-11-20T09:19:34.721Z,90.8505859375
2022-11-20T09:20:08.127Z,89.0556640625
2022-11-20T09:21:08.279Z,88.2470703125
2022-11-20T09:22:08.225Z,86.84375
2022-11-20T09:23:08.236Z,86.501953125
2022-11-20T09:24:14.075Z,85.3525390625
2022-11-20T09:25:08.217Z,85.6240234375
2022-11-20T09:26:08.179Z,84.11328125
2022-11-20T09:27:08.153Z,84.220703125
2022-11-20T09:28:08.163Z,84.1396484375
2022-11-20T09:29:08.137Z,84.6611328125
2022-11-20T09:30:08.008Z,85.3359375
2022-11-20T09:31:08.062Z,86.1025390625
2022-11-20T09:32:08.103Z,86.2822265625
2022-11-20T09:33:08.177Z,85.4287109375
2022-11-20T09:34:08.197Z,86.6494140625
2022-11-20T09:35:11.119Z,86.2080078125
2022-11-20T09:36:08.129Z,86.0947265625
2022-11-20T09:37:08.108Z,86.431640625
2022-11-20T09:38:08.229Z,86.779296875
2022-11-20T09:39:08.143Z,87.12890625
2022-11-20T09:40:08.109Z,86.1318359375
2022-11-20T09:41:08.133Z,86.1650390625
2022-11-20T09:42:08.239Z,87.1240234375
2022-11-20T09:43:08.207Z,87.427734375
2022-11-20T09:44:08.135Z,87.259765625
2022-11-20T09:45:08.095Z,86.1494140625
2022-11-20T09:46:11.137Z,86.3076171875
2022-11-20T09:47:08.076Z,85.888671875
2022-11-20T09:48:08.111Z,85.4482421875
2022-11-20T09:49:08.383Z,85.603515625
2022-11-20T09:50:08.154Z,85.1845703125
2022-11-20T09:51:08.134Z,84.494140625
2022-11-20T09:52:08.105Z,84.833984375
2022-11-20T09:53:08.156Z,84.0869140625
2022-11-20T09:54:08.196Z,83.9677734375
2022-11-20T09:55:08.226Z,84.2060546875
2022-11-20T09:56:08.131Z,83.9541015625
2022-11-20T09:57:11.159Z,85.10546875
2022-11-20T09:58:09.456Z,86.0927734375
2022-11-20T09:59:08.230Z,86.5908203125
2022-11-20T10:00:07.989Z,87.0654296875
2022-11-20T10:01:08.086Z,88.0068359375
2022-11-20T10:02:08.155Z,88.2939453125
2022-11-20T10:03:08.137Z,89.5830078125
2022-11-20T10:04:08.209Z,89.431640625
2022-11-20T10:05:08.142Z,89.8173828125
2022-11-20T10:06:08.231Z,91.5029296875
2022-11-20T10:07:31.476Z,91.41015625
2022-11-20T10:08:11.232Z,91.3134765625
2022-11-20T10:09:08.233Z,91.4169921875
2022-11-20T10:10:08.163Z,91.7548828125
2022-11-20T10:11:08.096Z,91.7529296875
2022-11-20T10:12:08.003Z,91.599609375
2022-11-20T10:13:08.198Z,91.7666015625
2022-11-20T10:14:13.211Z,92.0322265625
2022-11-20T10:15:08.008Z,92.5625
2022-11-20T10:16:08.140Z,92.81640625
2022-11-20T10:17:08.019Z,92.583984375
2022-11-20T10:18:08.167Z,92.33984375
2022-11-20T10:19:08.122Z,91.4375
2022-11-20T10:20:08.067Z,89.869140625
2022-11-20T10:21:08.185Z,88.7333984375
2022-11-20T10:22:10.485Z,87.8759765625
2022-11-20T10:23:08.174Z,88.515625
2022-11-20T10:24:08.036Z,87.21875
2022-11-20T10:25:08.158Z,87.119140625
2022-11-20T10:26:08.127Z,87.0341796875
2022-11-20T10:27:08.275Z,86.7646484375
2022-11-20T10:28:08.235Z,86.515625
2022-11-20T10:29:09.094Z,85.537109375
2022-11-20T10:30:11.118Z,85.3837890625
2022-11-20T10:31:08.028Z,85.0390625
2022-11-20T10:32:08.047Z,85.845703125
2022-11-20T10:33:08.175Z,85.8603515625
2022-11-20T10:34:12.669Z,85.3017578125
2022-11-20T10:35:08.108Z,85.794921875
2022-11-20T10:36:08.014Z,86.27734375
2022-11-20T10:37:08.090Z,86.09375
2022-11-20T10:38:08.126Z,85.8232421875
2022-11-20T10:39:08.151Z,86.3759765625
2022-11-20T10:40:08.254Z,86.9658203125
2022-11-20T10:41:11.131Z,87.228515625
2022-11-20T10:42:08.115Z,87.3310546875
2022-11-20T10:43:08.092Z,87.44140625
2022-11-20T10:44:08.445Z,87.7470703125
2022-11-20T10:45:08.021Z,87.447265625
2022-11-20T10:46:08.137Z,87.447265625
2022-11-20T10:47:08.176Z,87.23046875
2022-11-20T10:48:08.482Z,87.181640625
2022-11-20T10:49:08.391Z,86.927734375
2022-11-20T10:50:08.143Z,87.1328125
2022-11-20T10:51:08.109Z,87.2333984375
2022-11-20T10:52:11.127Z,87.57421875
2022-11-20T10:53:08.250Z,87.5849609375
2022-11-20T10:54:08.428Z,86.92578125
2022-11-20T10:55:08.201Z,86.177734375
2022-11-20T10:56:08.127Z,86.154296875
2022-11-20T10:57:08.197Z,86.3564453125
2022-11-20T10:58:11.023Z,86.4853515625
2022-11-20T10:59:08.412Z,86.259765625
2022-11-20T11:00:08.001Z,86.078125
2022-11-20T11:01:08.295Z,85.15625
2022-11-20T11:02:08.129Z,84.76171875
2022-11-20T11:03:08.030Z,84.8291015625
2022-11-20T11:04:08.132Z,84.875
2022-11-20T11:05:14.131Z,84.9599609375
2022-11-20T11:06:08.145Z,85.1669921875
2022-11-20T11:07:08.168Z,85.0322265625
2022-11-20T11:08:08.233Z,85.470703125
2022-11-20T11:09:11.152Z,85.330078125
2022-11-20T11:10:08.161Z,84.904296875
2022-11-20T11:11:08.108Z,84.73046875
2022-11-20T11:12:08.118Z,84.900390625
2022-11-20T11:13:08.176Z,84.7568359375
2022-11-20T11:14:08.177Z,85.0849609375
2022-11-20T11:15:11.119Z,85.0341796875
2022-11-20T11:16:08.217Z,84.4619140625
2022-11-20T11:17:08.005Z,84.1669921875
2022-11-20T11:18:08.428Z,84.3115234375
2022-11-20T11:19:08.232Z,84.103515625
2022-11-20T11:20:08.177Z,84.3212890625
2022-11-20T11:21:08.172Z,84.630859375
2022-11-20T11:22:08.136Z,85.00390625
2022-11-20T11:23:08.215Z,85.1083984375
2022-11-20T11:24:34.822Z,85.146484375
2022-11-20T11:25:08.238Z,84.4560546875
2022-11-20T11:26:11.000Z,84.158203125
2022-11-20T11:27:12.385Z,83.759765625
2022-11-20T11:28:08.147Z,84.16015625
2022-11-20T11:29:08.230Z,83.951171875
2022-11-20T11:30:08.166Z,84.0986328125
2022-11-20T11:31:08.143Z,83.9345703125
2022-11-20T11:32:08.030Z,83.6044921875
2022-11-20T11:33:08.164Z,83.9833984375
2022-11-20T11:34:08.206Z,84.318359375
2022-11-20T11:35:07.988Z,83.9970703125
2022-11-20T11:36:08.232Z,84.0634765625
2022-11-20T11:37:11.161Z,83.259765625
2022-11-20T11:38:08.015Z,83.611328125
2022-11-20T11:39:08.176Z,83.509765625
2022-11-20T11:40:24.293Z,83.8701171875
2022-11-20T11:41:08.209Z,83.75
2022-11-20T11:42:08.122Z,83.6533203125
2022-11-20T11:43:08.025Z,83.2763671875
2022-11-20T11:44:08.452Z,82.8095703125
2022-11-20T11:45:08.098Z,81.8310546875
2022-11-20T11:46:08.014Z,81.6748046875
2022-11-20T11:47:08.165Z,80.8681640625
2022-11-20T11:48:11.426Z,80.31640625
2022-11-20T11:49:08.220Z,79.2470703125
2022-11-20T11:50:08.133Z,79.2353515625
2022-11-20T11:51:08.161Z,78.37109375
2022-11-20T11:52:08.230Z,77.9453125
2022-11-20T11:53:08.217Z,77.259765625
2022-11-20T11:54:08.378Z,77.625
2022-11-20T11:55:11.637Z,77.658203125
2022-11-20T11:56:08.128Z,78.5185546875
2022-11-20T11:57:08.205Z,79.1181640625
2022-11-20T11:58:08.110Z,79.9169921875